SSEC Globe Logo

Space Science and Engineering Center

Regional Terminal Forecasts

KMSN 180520Z 1806/1906 21007KT P6SM SKC WS020/23035KT
     FM181600 20013G22KT P6SM SKC FM190000 21011KT P6SM
     FEW250 WS020/22040KT=
TAF KMKE 180520Z 1806/1912 22009KT P6SM SKC WS020/24035KT
     FM181400 21013G23KT P6SM SKC FM182200 21015KT P6SM
     FEW250 FM190000 21012KT P6SM FEW250 WS020/22040KT
     FM190500 23011G21KT P6SM FEW250 WS020/25040KT FM190900
     27007KT P6SM FEW200=
KGRB 180520Z 1806/1906 21006KT P6SM SKC WS010/24035KT
     FM181500 21015G24KT P6SM SKC FM182300 21012KT P6SM
     SCT200 WS012/23040KT FM190500 24008KT P6SM SKC=
KAUW 180520Z 1806/1906 18006KT P6SM SKC FM181600 20014G22KT
     P6SM SKC FM182300 23011KT P6SM SCT050 SCT200
     WS020/23040KT FM190200 27008KT P6SM SKC=
KEAU 180520Z 1806/1906 20006KT P6SM SKC FM181600 18010KT
     P6SM FEW250 FM182000 22012G22KT P6SM FEW250 FM190000
     25008KT P6SM FEW250 FM190400 28004KT P6SM FEW250=
TAF KLSE 180520Z 1806/1906 18009KT P6SM SKC FM181600
     20013G20KT P6SM SCT250 FM182300 16007KT P6SM SCT250=
KDBQ 180520Z 1806/1906 19008KT P6SM SKC WS013/21033KT
     FM181500 20013KT P6SM SKC FM181800 20015G24KT P6SM SKC
     FM182300 21010KT P6SM SCT250=
TAF TAF AMD KRFD 180903Z 1809/1906 19006KT P6SM SKC FM181500
     19013G22KT P6SM SKC FM181900 21016G26KT P6SM FEW250
     FM190000 20009KT P6SM FEW250=
KORD 180903Z 1809/1912 20007KT P6SM SKC FM181500 20013G23KT
     P6SM SKC FM181900 21016G26KT P6SM FEW250 FM190000
     20010KT P6SM FEW250=